Terminal Aerodrome Forecast
Issued by NWS

Home | Current Version | Previous Version | Text Only | Print | Product List | Glossary On
Versions: 1 2 3 4 5 6 7 8 9 10 11 12 13 14 15 16 17 18 19
019
FTUS43 KSGF 282320
TAFJLN
TAF
KJLN 282320Z 2900/2924 29006KT P6SM SCT150
     FM290800 VRB04KT P6SM VCTS SCT040CB BKN150 PROB30 2909/2913 5SM
      -TSRA BR BKN040CB
     FM291300 09004KT P6SM BKN200 PROB30 2913/2916 4SM TSRA OVC040CB
     FM291800 29005KT P6SM BKN080=

USA.gov is the U.S. government's official web portal to all federal, state and local government web resources and services.